sensor_id;sensor_type;location;lat;lon;timestamp;P1;durP1;ratioP1;P2;durP2;ratioP2
26622;SDS011;14254;50.968;5.366;2023-07-13T00:02:14;8.05;;;1.65;;
26622;SDS011;14254;50.968;5.366;2023-07-13T00:04:40;5.40;;;1.30;;
26622;SDS011;14254;50.968;5.366;2023-07-13T00:07:06;7.28;;;1.35;;
26622;SDS011;14254;50.968;5.366;2023-07-13T00:09:32;4.10;;;1.45;;
26622;SDS011;14254;50.968;5.366;2023-07-13T00:11:58;9.75;;;1.48;;
26622;SDS011;14254;50.968;5.366;2023-07-13T00:14:24;3.38;;;1.60;;
26622;SDS011;14254;50.968;5.366;2023-07-13T00:16:51;9.23;;;1.90;;
26622;SDS011;14254;50.968;5.366;2023-07-13T00:19:17;4.15;;;1.75;;
26622;SDS011;14254;50.968;5.366;2023-07-13T00:21:43;9.77;;;2.30;;
26622;SDS011;14254;50.968;5.366;2023-07-13T00:24:10;5.63;;;1.60;;
26622;SDS011;14254;50.968;5.366;2023-07-13T00:29:09;6.70;;;1.90;;
26622;SDS011;14254;50.968;5.366;2023-07-13T00:31:35;6.20;;;1.55;;
26622;SDS011;14254;50.968;5.366;2023-07-13T00:34:01;5.88;;;1.40;;
26622;SDS011;14254;50.968;5.366;2023-07-13T00:36:27;3.78;;;1.30;;
26622;SDS011;14254;50.968;5.366;2023-07-13T00:38:52;9.15;;;1.75;;
26622;SDS011;14254;50.968;5.366;2023-07-13T00:41:18;6.63;;;1.73;;
26622;SDS011;14254;50.968;5.366;2023-07-13T00:43:44;5.72;;;1.60;;
26622;SDS011;14254;50.968;5.366;2023-07-13T00:46:13;4.28;;;1.70;;
26622;SDS011;14254;50.968;5.366;2023-07-13T00:48:48;5.43;;;1.83;;
26622;SDS011;14254;50.968;5.366;2023-07-13T00:51:16;3.72;;;1.50;;
26622;SDS011;14254;50.968;5.366;2023-07-13T00:53:45;5.27;;;1.87;;
26622;SDS011;14254;50.968;5.366;2023-07-13T00:56:11;6.43;;;1.67;;
26622;SDS011;14254;50.968;5.366;2023-07-13T00:58:37;5.72;;;2.13;;
26622;SDS011;14254;50.968;5.366;2023-07-13T01:01:03;5.60;;;1.52;;
26622;SDS011;14254;50.968;5.366;2023-07-13T01:03:29;7.55;;;2.30;;
26622;SDS011;14254;50.968;5.366;2023-07-13T01:05:55;6.22;;;1.65;;
26622;SDS011;14254;50.968;5.366;2023-07-13T01:08:21;10.40;;;2.25;;
26622;SDS011;14254;50.968;5.366;2023-07-13T01:10:51;4.07;;;1.88;;
26622;SDS011;14254;50.968;5.366;2023-07-13T01:13:20;6.78;;;1.95;;
26622;SDS011;14254;50.968;5.366;2023-07-13T01:15:46;9.68;;;2.00;;
26622;SDS011;14254;50.968;5.366;2023-07-13T01:18:23;7.38;;;1.95;;
26622;SDS011;14254;50.968;5.366;2023-07-13T01:23:17;10.25;;;2.13;;
26622;SDS011;14254;50.968;5.366;2023-07-13T01:25:43;7.55;;;1.90;;
26622;SDS011;14254;50.968;5.366;2023-07-13T01:28:09;9.75;;;2.15;;
26622;SDS011;14254;50.968;5.366;2023-07-13T01:30:35;6.57;;;1.75;;
26622;SDS011;14254;50.968;5.366;2023-07-13T01:33:05;7.22;;;2.28;;
26622;SDS011;14254;50.968;5.366;2023-07-13T01:35:32;10.80;;;2.58;;
26622;SDS011;14254;50.968;5.366;2023-07-13T01:37:58;6.43;;;1.70;;
26622;SDS011;14254;50.968;5.366;2023-07-13T01:40:26;5.88;;;1.65;;
26622;SDS011;14254;50.968;5.366;2023-07-13T01:42:52;15.00;;;2.45;;
26622;SDS011;14254;50.968;5.366;2023-07-13T01:45:18;12.43;;;3.40;;
26622;SDS011;14254;50.968;5.366;2023-07-13T01:47:43;8.68;;;1.90;;
26622;SDS011;14254;50.968;5.366;2023-07-13T01:50:09;10.05;;;2.33;;
26622;SDS011;14254;50.968;5.366;2023-07-13T01:52:35;7.10;;;1.95;;
26622;SDS011;14254;50.968;5.366;2023-07-13T01:55:01;3.40;;;1.77;;
26622;SDS011;14254;50.968;5.366;2023-07-13T01:57:27;7.93;;;2.40;;
26622;SDS011;14254;50.968;5.366;2023-07-13T01:59:53;7.03;;;2.10;;
26622;SDS011;14254;50.968;5.366;2023-07-13T02:02:18;11.30;;;2.08;;
26622;SDS011;14254;50.968;5.366;2023-07-13T02:04:44;10.07;;;2.15;;
26622;SDS011;14254;50.968;5.366;2023-07-13T02:07:10;8.00;;;2.08;;
26622;SDS011;14254;50.968;5.366;2023-07-13T02:09:36;6.30;;;1.92;;
26622;SDS011;14254;50.968;5.366;2023-07-13T02:12:01;9.10;;;2.15;;
26622;SDS011;14254;50.968;5.366;2023-07-13T02:14:27;8.52;;;1.88;;
26622;SDS011;14254;50.968;5.366;2023-07-13T02:16:53;3.92;;;2.00;;
26622;SDS011;14254;50.968;5.366;2023-07-13T02:19:19;9.68;;;2.25;;
26622;SDS011;14254;50.968;5.366;2023-07-13T02:21:45;9.45;;;2.03;;
26622;SDS011;14254;50.968;5.366;2023-07-13T02:24:10;4.05;;;2.10;;
26622;SDS011;14254;50.968;5.366;2023-07-13T02:26:42;5.95;;;2.22;;
26622;SDS011;14254;50.968;5.366;2023-07-13T02:29:11;10.35;;;2.47;;
26622;SDS011;14254;50.968;5.366;2023-07-13T02:31:37;6.13;;;2.10;;
26622;SDS011;14254;50.968;5.366;2023-07-13T02:34:02;14.38;;;2.38;;
26622;SDS011;14254;50.968;5.366;2023-07-13T02:36:29;8.63;;;2.33;;
26622;SDS011;14254;50.968;5.366;2023-07-13T02:38:55;11.35;;;2.28;;
26622;SDS011;14254;50.968;5.366;2023-07-13T02:41:21;7.18;;;2.35;;
26622;SDS011;14254;50.968;5.366;2023-07-13T02:43:48;5.95;;;2.90;;
26622;SDS011;14254;50.968;5.366;2023-07-13T02:46:13;6.85;;;2.40;;
26622;SDS011;14254;50.968;5.366;2023-07-13T02:48:39;4.93;;;2.10;;
26622;SDS011;14254;50.968;5.366;2023-07-13T02:51:05;6.68;;;1.92;;
26622;SDS011;14254;50.968;5.366;2023-07-13T02:53:33;11.80;;;2.47;;
26622;SDS011;14254;50.968;5.366;2023-07-13T02:56:00;8.25;;;2.50;;
26622;SDS011;14254;50.968;5.366;2023-07-13T02:58:26;9.43;;;2.10;;
26622;SDS011;14254;50.968;5.366;2023-07-13T03:00:51;6.13;;;2.47;;
26622;SDS011;14254;50.968;5.366;2023-07-13T03:03:17;6.20;;;1.85;;
26622;SDS011;14254;50.968;5.366;2023-07-13T03:05:43;18.20;;;2.72;;
26622;SDS011;14254;50.968;5.366;2023-07-13T03:10:41;12.63;;;2.03;;
26622;SDS011;14254;50.968;5.366;2023-07-13T03:13:06;10.50;;;2.53;;
26622;SDS011;14254;50.968;5.366;2023-07-13T03:15:32;8.68;;;2.50;;
26622;SDS011;14254;50.968;5.366;2023-07-13T03:17:58;12.65;;;2.53;;
26622;SDS011;14254;50.968;5.366;2023-07-13T03:20:23;4.25;;;2.08;;
26622;SDS011;14254;50.968;5.366;2023-07-13T03:22:49;13.68;;;3.05;;
26622;SDS011;14254;50.968;5.366;2023-07-13T03:25:15;8.02;;;2.47;;
26622;SDS011;14254;50.968;5.366;2023-07-13T03:27:40;15.07;;;2.67;;
26622;SDS011;14254;50.968;5.366;2023-07-13T03:30:06;9.02;;;2.33;;
26622;SDS011;14254;50.968;5.366;2023-07-13T03:32:32;12.18;;;2.70;;
26622;SDS011;14254;50.968;5.366;2023-07-13T03:34:58;12.15;;;2.72;;
26622;SDS011;14254;50.968;5.366;2023-07-13T03:37:24;8.18;;;2.78;;
26622;SDS011;14254;50.968;5.366;2023-07-13T03:39:50;13.02;;;2.78;;
26622;SDS011;14254;50.968;5.366;2023-07-13T03:42:16;19.55;;;2.90;;
26622;SDS011;14254;50.968;5.366;2023-07-13T03:44:42;7.63;;;2.05;;
26622;SDS011;14254;50.968;5.366;2023-07-13T03:47:11;11.38;;;2.75;;
26622;SDS011;14254;50.968;5.366;2023-07-13T03:49:36;11.52;;;2.60;;
26622;SDS011;14254;50.968;5.366;2023-07-13T03:52:02;10.48;;;2.53;;
26622;SDS011;14254;50.968;5.366;2023-07-13T03:54:28;9.40;;;2.78;;
26622;SDS011;14254;50.968;5.366;2023-07-13T03:56:54;12.93;;;4.15;;
26622;SDS011;14254;50.968;5.366;2023-07-13T03:59:20;6.57;;;2.65;;
26622;SDS011;14254;50.968;5.366;2023-07-13T04:01:46;14.25;;;2.95;;
26622;SDS011;14254;50.968;5.366;2023-07-13T04:04:11;8.90;;;2.67;;
26622;SDS011;14254;50.968;5.366;2023-07-13T04:06:37;14.05;;;3.15;;
26622;SDS011;14254;50.968;5.366;2023-07-13T04:09:03;13.02;;;2.83;;
26622;SDS011;14254;50.968;5.366;2023-07-13T04:11:33;11.13;;;2.95;;
26622;SDS011;14254;50.968;5.366;2023-07-13T04:14:01;14.35;;;3.22;;
26622;SDS011;14254;50.968;5.366;2023-07-13T04:16:27;11.85;;;2.88;;
26622;SDS011;14254;50.968;5.366;2023-07-13T04:18:54;10.27;;;2.70;;
26622;SDS011;14254;50.968;5.366;2023-07-13T04:21:24;9.80;;;2.80;;
26622;SDS011;14254;50.968;5.366;2023-07-13T04:23:50;10.25;;;3.03;;
26622;SDS011;14254;50.968;5.366;2023-07-13T04:26:16;12.27;;;2.78;;
26622;SDS011;14254;50.968;5.366;2023-07-13T04:28:42;10.50;;;2.72;;
26622;SDS011;14254;50.968;5.366;2023-07-13T04:31:07;9.57;;;2.75;;
26622;SDS011;14254;50.968;5.366;2023-07-13T04:33:33;8.02;;;2.63;;
26622;SDS011;14254;50.968;5.366;2023-07-13T04:35:59;10.70;;;2.47;;
26622;SDS011;14254;50.968;5.366;2023-07-13T04:38:27;9.25;;;2.78;;
26622;SDS011;14254;50.968;5.366;2023-07-13T04:40:55;10.38;;;2.83;;
26622;SDS011;14254;50.968;5.366;2023-07-13T04:43:22;8.73;;;3.22;;
26622;SDS011;14254;50.968;5.366;2023-07-13T04:45:50;11.90;;;2.78;;
26622;SDS011;14254;50.968;5.366;2023-07-13T04:48:16;8.98;;;3.00;;
26622;SDS011;14254;50.968;5.366;2023-07-13T04:50:41;12.52;;;2.80;;
26622;SDS011;14254;50.968;5.366;2023-07-13T04:53:08;15.48;;;3.03;;
26622;SDS011;14254;50.968;5.366;2023-07-13T04:55:34;9.20;;;3.10;;
26622;SDS011;14254;50.968;5.366;2023-07-13T04:57:59;12.60;;;2.97;;
26622;SDS011;14254;50.968;5.366;2023-07-13T05:00:25;11.10;;;3.13;;
26622;SDS011;14254;50.968;5.366;2023-07-13T05:02:53;11.65;;;2.88;;
26622;SDS011;14254;50.968;5.366;2023-07-13T05:05:20;10.90;;;3.78;;
26622;SDS011;14254;50.968;5.366;2023-07-13T05:07:45;11.25;;;2.92;;
26622;SDS011;14254;50.968;5.366;2023-07-13T05:10:11;14.18;;;3.47;;
26622;SDS011;14254;50.968;5.366;2023-07-13T05:12:36;12.18;;;3.17;;
26622;SDS011;14254;50.968;5.366;2023-07-13T05:15:02;16.95;;;4.68;;
26622;SDS011;14254;50.968;5.366;2023-07-13T05:17:28;10.07;;;2.78;;
26622;SDS011;14254;50.968;5.366;2023-07-13T05:19:54;13.02;;;2.65;;
26622;SDS011;14254;50.968;5.366;2023-07-13T05:22:20;15.00;;;3.25;;
26622;SDS011;14254;50.968;5.366;2023-07-13T05:24:46;10.85;;;3.17;;
26622;SDS011;14254;50.968;5.366;2023-07-13T05:27:12;13.18;;;3.95;;
26622;SDS011;14254;50.968;5.366;2023-07-13T05:29:37;15.73;;;3.05;;
26622;SDS011;14254;50.968;5.366;2023-07-13T05:32:03;10.40;;;2.65;;
26622;SDS011;14254;50.968;5.366;2023-07-13T05:34:29;14.80;;;3.50;;
26622;SDS011;14254;50.968;5.366;2023-07-13T05:36:55;9.35;;;3.55;;
26622;SDS011;14254;50.968;5.366;2023-07-13T05:39:20;16.20;;;3.90;;
26622;SDS011;14254;50.968;5.366;2023-07-13T05:41:46;12.40;;;3.50;;
26622;SDS011;14254;50.968;5.366;2023-07-13T05:44:12;11.05;;;3.50;;
26622;SDS011;14254;50.968;5.366;2023-07-13T05:46:38;8.75;;;2.50;;
26622;SDS011;14254;50.968;5.366;2023-07-13T05:49:03;17.63;;;3.50;;
26622;SDS011;14254;50.968;5.366;2023-07-13T05:51:29;10.65;;;3.30;;
26622;SDS011;14254;50.968;5.366;2023-07-13T05:53:55;7.70;;;2.78;;
26622;SDS011;14254;50.968;5.366;2023-07-13T05:56:20;8.38;;;2.83;;
26622;SDS011;14254;50.968;5.366;2023-07-13T05:58:47;19.08;;;4.40;;
26622;SDS011;14254;50.968;5.366;2023-07-13T06:01:14;11.48;;;3.03;;
26622;SDS011;14254;50.968;5.366;2023-07-13T06:03:40;10.15;;;3.42;;
26622;SDS011;14254;50.968;5.366;2023-07-13T06:06:07;15.63;;;3.35;;
26622;SDS011;14254;50.968;5.366;2023-07-13T06:08:35;23.27;;;3.97;;
26622;SDS011;14254;50.968;5.366;2023-07-13T06:11:02;13.55;;;3.25;;
26622;SDS011;14254;50.968;5.366;2023-07-13T06:13:32;15.80;;;3.17;;
26622;SDS011;14254;50.968;5.366;2023-07-13T06:15:58;10.93;;;3.17;;
26622;SDS011;14254;50.968;5.366;2023-07-13T06:18:24;14.30;;;3.72;;
26622;SDS011;14254;50.968;5.366;2023-07-13T06:20:50;13.52;;;3.00;;
26622;SDS011;14254;50.968;5.366;2023-07-13T06:23:16;17.75;;;4.07;;
26622;SDS011;14254;50.968;5.366;2023-07-13T06:25:42;9.50;;;2.55;;
26622;SDS011;14254;50.968;5.366;2023-07-13T06:28:08;16.65;;;4.05;;
26622;SDS011;14254;50.968;5.366;2023-07-13T06:30:34;14.05;;;3.88;;
26622;SDS011;14254;50.968;5.366;2023-07-13T06:33:00;12.50;;;3.20;;
26622;SDS011;14254;50.968;5.366;2023-07-13T06:35:25;11.85;;;3.15;;
26622;SDS011;14254;50.968;5.366;2023-07-13T06:37:51;14.82;;;3.45;;
26622;SDS011;14254;50.968;5.366;2023-07-13T06:40:16;14.13;;;3.88;;
26622;SDS011;14254;50.968;5.366;2023-07-13T06:42:42;18.27;;;4.45;;
26622;SDS011;14254;50.968;5.366;2023-07-13T06:45:08;12.60;;;3.78;;
26622;SDS011;14254;50.968;5.366;2023-07-13T06:47:34;16.50;;;3.60;;
26622;SDS011;14254;50.968;5.366;2023-07-13T06:50:00;25.02;;;4.20;;
26622;SDS011;14254;50.968;5.366;2023-07-13T06:52:26;21.38;;;4.57;;
26622;SDS011;14254;50.968;5.366;2023-07-13T06:54:51;15.10;;;4.03;;
26622;SDS011;14254;50.968;5.366;2023-07-13T06:57:17;9.05;;;3.33;;
26622;SDS011;14254;50.968;5.366;2023-07-13T06:59:43;16.50;;;3.47;;
26622;SDS011;14254;50.968;5.366;2023-07-13T07:02:09;15.45;;;3.80;;
26622;SDS011;14254;50.968;5.366;2023-07-13T07:04:35;12.90;;;3.47;;
26622;SDS011;14254;50.968;5.366;2023-07-13T07:07:01;16.20;;;3.78;;
26622;SDS011;14254;50.968;5.366;2023-07-13T07:09:27;15.60;;;3.65;;
26622;SDS011;14254;50.968;5.366;2023-07-13T07:11:55;14.93;;;3.67;;
26622;SDS011;14254;50.968;5.366;2023-07-13T07:14:20;10.57;;;3.00;;
26622;SDS011;14254;50.968;5.366;2023-07-13T07:16:46;11.95;;;3.08;;
26622;SDS011;14254;50.968;5.366;2023-07-13T07:19:12;21.05;;;3.80;;
26622;SDS011;14254;50.968;5.366;2023-07-13T07:21:37;14.25;;;4.88;;
26622;SDS011;14254;50.968;5.366;2023-07-13T07:24:03;14.25;;;3.25;;
26622;SDS011;14254;50.968;5.366;2023-07-13T07:26:30;9.95;;;3.10;;
26622;SDS011;14254;50.968;5.366;2023-07-13T07:28:56;11.88;;;3.33;;
26622;SDS011;14254;50.968;5.366;2023-07-13T07:31:21;17.73;;;3.40;;
26622;SDS011;14254;50.968;5.366;2023-07-13T07:33:47;11.80;;;3.28;;
26622;SDS011;14254;50.968;5.366;2023-07-13T07:36:14;10.63;;;3.47;;
26622;SDS011;14254;50.968;5.366;2023-07-13T07:38:41;11.15;;;3.80;;
26622;SDS011;14254;50.968;5.366;2023-07-13T07:41:07;15.63;;;3.58;;
26622;SDS011;14254;50.968;5.366;2023-07-13T07:43:33;8.57;;;3.42;;
26622;SDS011;14254;50.968;5.366;2023-07-13T07:45:58;19.88;;;4.10;;
26622;SDS011;14254;50.968;5.366;2023-07-13T07:48:24;12.93;;;3.75;;
26622;SDS011;14254;50.968;5.366;2023-07-13T07:50:50;17.52;;;3.92;;
26622;SDS011;14254;50.968;5.366;2023-07-13T07:53:16;12.60;;;3.20;;
26622;SDS011;14254;50.968;5.366;2023-07-13T07:55:41;13.35;;;3.10;;
26622;SDS011;14254;50.968;5.366;2023-07-13T07:58:07;15.35;;;3.30;;
26622;SDS011;14254;50.968;5.366;2023-07-13T08:00:32;12.85;;;2.92;;
26622;SDS011;14254;50.968;5.366;2023-07-13T08:02:58;14.38;;;3.75;;
26622;SDS011;14254;50.968;5.366;2023-07-13T08:05:24;11.80;;;3.38;;
26622;SDS011;14254;50.968;5.366;2023-07-13T08:07:50;16.42;;;3.03;;
26622;SDS011;14254;50.968;5.366;2023-07-13T08:10:16;13.27;;;4.60;;
26622;SDS011;14254;50.968;5.366;2023-07-13T08:12:42;8.88;;;3.20;;
26622;SDS011;14254;50.968;5.366;2023-07-13T08:15:12;11.68;;;4.05;;
26622;SDS011;14254;50.968;5.366;2023-07-13T08:17:39;13.95;;;3.00;;
26622;SDS011;14254;50.968;5.366;2023-07-13T08:20:05;13.20;;;3.30;;
26622;SDS011;14254;50.968;5.366;2023-07-13T08:22:31;16.52;;;3.97;;
26622;SDS011;14254;50.968;5.366;2023-07-13T08:24:58;12.18;;;3.03;;
26622;SDS011;14254;50.968;5.366;2023-07-13T08:27:25;11.48;;;3.15;;
26622;SDS011;14254;50.968;5.366;2023-07-13T08:29:52;13.50;;;4.28;;
26622;SDS011;14254;50.968;5.366;2023-07-13T08:32:19;13.00;;;2.95;;
26622;SDS011;14254;50.968;5.366;2023-07-13T08:34:46;8.93;;;3.05;;
26622;SDS011;14254;50.968;5.366;2023-07-13T08:37:12;10.40;;;2.65;;
26622;SDS011;14254;50.968;5.366;2023-07-13T08:39:37;11.38;;;3.20;;
26622;SDS011;14254;50.968;5.366;2023-07-13T08:47:39;15.85;;;3.20;;
26622;SDS011;14254;50.968;5.366;2023-07-13T08:50:19;9.68;;;3.03;;
26622;SDS011;14254;50.968;5.366;2023-07-13T08:52:49;14.20;;;3.30;;
26622;SDS011;14254;50.968;5.366;2023-07-13T08:55:21;11.23;;;2.58;;
26622;SDS011;14254;50.968;5.366;2023-07-13T08:58:00;15.13;;;2.88;;
26622;SDS011;14254;50.968;5.366;2023-07-13T09:00:37;12.48;;;2.88;;
26622;SDS011;14254;50.968;5.366;2023-07-13T09:03:21;9.45;;;2.85;;
26622;SDS011;14254;50.968;5.366;2023-07-13T09:05:56;11.32;;;2.92;;
26622;SDS011;14254;50.968;5.366;2023-07-13T09:16:26;6.38;;;2.22;;
26622;SDS011;14254;50.968;5.366;2023-07-13T09:18:52;11.10;;;2.80;;
26622;SDS011;14254;50.968;5.366;2023-07-13T09:23:56;7.57;;;2.35;;
26622;SDS011;14254;50.968;5.366;2023-07-13T09:26:26;7.82;;;2.25;;
26622;SDS011;14254;50.968;5.366;2023-07-13T09:28:57;12.63;;;2.75;;
26622;SDS011;14254;50.968;5.366;2023-07-13T09:31:30;8.02;;;2.63;;
26622;SDS011;14254;50.968;5.366;2023-07-13T09:34:02;7.82;;;2.45;;
26622;SDS011;14254;50.968;5.366;2023-07-13T09:36:30;6.95;;;1.92;;
26622;SDS011;14254;50.968;5.366;2023-07-13T09:42:14;11.18;;;3.45;;
26622;SDS011;14254;50.968;5.366;2023-07-13T09:44:52;9.98;;;2.40;;
26622;SDS011;14254;50.968;5.366;2023-07-13T09:47:30;7.05;;;1.90;;
26622;SDS011;14254;50.968;5.366;2023-07-13T09:50:08;6.40;;;1.88;;
26622;SDS011;14254;50.968;5.366;2023-07-13T09:52:44;6.57;;;2.47;;
26622;SDS011;14254;50.968;5.366;2023-07-13T09:55:57;8.00;;;2.20;;
26622;SDS011;14254;50.968;5.366;2023-07-13T09:58:10;10.15;;;2.45;;
26622;SDS011;14254;50.968;5.366;2023-07-13T10:00:38;10.48;;;2.13;;
26622;SDS011;14254;50.968;5.366;2023-07-13T10:05:42;13.05;;;2.45;;
26622;SDS011;14254;50.968;5.366;2023-07-13T10:11:07;8.13;;;2.42;;
26622;SDS011;14254;50.968;5.366;2023-07-13T10:13:36;7.18;;;2.30;;
26622;SDS011;14254;50.968;5.366;2023-07-13T10:16:06;10.75;;;2.80;;
26622;SDS011;14254;50.968;5.366;2023-07-13T10:18:39;8.80;;;1.70;;
26622;SDS011;14254;50.968;5.366;2023-07-13T10:21:14;7.70;;;2.20;;
26622;SDS011;14254;50.968;5.366;2023-07-13T10:23:50;6.80;;;1.63;;
26622;SDS011;14254;50.968;5.366;2023-07-13T10:26:24;12.57;;;2.67;;
26622;SDS011;14254;50.968;5.366;2023-07-13T10:28:53;5.35;;;2.03;;
26622;SDS011;14254;50.968;5.366;2023-07-13T10:31:21;6.88;;;1.85;;
26622;SDS011;14254;50.968;5.366;2023-07-13T10:33:48;5.22;;;1.98;;
26622;SDS011;14254;50.968;5.366;2023-07-13T10:36:17;4.07;;;1.38;;
26622;SDS011;14254;50.968;5.366;2023-07-13T10:39:02;9.10;;;1.92;;
26622;SDS011;14254;50.968;5.366;2023-07-13T10:41:30;9.85;;;2.20;;
26622;SDS011;14254;50.968;5.366;2023-07-13T10:43:58;6.38;;;1.50;;
26622;SDS011;14254;50.968;5.366;2023-07-13T10:46:26;6.05;;;1.80;;
26622;SDS011;14254;50.968;5.366;2023-07-13T10:49:02;4.47;;;1.88;;
26622;SDS011;14254;50.968;5.366;2023-07-13T10:51:32;8.43;;;2.10;;
26622;SDS011;14254;50.968;5.366;2023-07-13T10:54:20;7.07;;;1.80;;
26622;SDS011;14254;50.968;5.366;2023-07-13T10:56:50;5.05;;;1.80;;
26622;SDS011;14254;50.968;5.366;2023-07-13T11:01:55;5.97;;;1.58;;
26622;SDS011;14254;50.968;5.366;2023-07-13T11:04:21;6.35;;;1.80;;
26622;SDS011;14254;50.968;5.366;2023-07-13T11:06:50;4.97;;;1.67;;
26622;SDS011;14254;50.968;5.366;2023-07-13T11:09:37;4.40;;;1.73;;
26622;SDS011;14254;50.968;5.366;2023-07-13T11:25:31;8.77;;;1.92;;
26622;SDS011;14254;50.968;5.366;2023-07-13T11:36:15;5.30;;;1.30;;
26622;SDS011;14254;50.968;5.366;2023-07-13T11:39:30;3.25;;;1.42;;
26622;SDS011;14254;50.968;5.366;2023-07-13T11:41:55;11.02;;;1.95;;
26622;SDS011;14254;50.968;5.366;2023-07-13T11:44:24;6.25;;;1.63;;
26622;SDS011;14254;50.968;5.366;2023-07-13T11:46:51;5.32;;;1.67;;
26622;SDS011;14254;50.968;5.366;2023-07-13T11:49:26;7.13;;;1.55;;
26622;SDS011;14254;50.968;5.366;2023-07-13T11:51:54;6.68;;;2.60;;
26622;SDS011;14254;50.968;5.366;2023-07-13T11:56:53;8.80;;;2.00;;
26622;SDS011;14254;50.968;5.366;2023-07-13T11:59:20;6.82;;;1.65;;
26622;SDS011;14254;50.968;5.366;2023-07-13T12:01:49;5.47;;;1.67;;
26622;SDS011;14254;50.968;5.366;2023-07-13T12:04:21;5.40;;;1.60;;
26622;SDS011;14254;50.968;5.366;2023-07-13T12:06:57;2.85;;;1.33;;
26622;SDS011;14254;50.968;5.366;2023-07-13T12:09:28;3.70;;;1.40;;
26622;SDS011;14254;50.968;5.366;2023-07-13T12:11:56;8.43;;;1.67;;
26622;SDS011;14254;50.968;5.366;2023-07-13T12:14:25;3.55;;;1.40;;
26622;SDS011;14254;50.968;5.366;2023-07-13T12:16:51;2.65;;;1.42;;
26622;SDS011;14254;50.968;5.366;2023-07-13T12:19:22;4.95;;;2.15;;
26622;SDS011;14254;50.968;5.366;2023-07-13T12:21:57;7.35;;;1.60;;
26622;SDS011;14254;50.968;5.366;2023-07-13T12:24:24;9.35;;;2.10;;
26622;SDS011;14254;50.968;5.366;2023-07-13T12:26:51;6.93;;;1.33;;
26622;SDS011;14254;50.968;5.366;2023-07-13T12:29:17;3.42;;;1.55;;
26622;SDS011;14254;50.968;5.366;2023-07-13T12:31:44;3.72;;;1.52;;
26622;SDS011;14254;50.968;5.366;2023-07-13T12:34:16;5.13;;;1.73;;
26622;SDS011;14254;50.968;5.366;2023-07-13T12:36:53;6.28;;;2.17;;
26622;SDS011;14254;50.968;5.366;2023-07-13T12:39:23;3.72;;;1.27;;
26622;SDS011;14254;50.968;5.366;2023-07-13T12:42:10;10.43;;;2.15;;
26622;SDS011;14254;50.968;5.366;2023-07-13T12:44:49;5.43;;;1.40;;
26622;SDS011;14254;50.968;5.366;2023-07-13T12:47:19;4.88;;;1.67;;
26622;SDS011;14254;50.968;5.366;2023-07-13T12:50:04;3.03;;;1.52;;
26622;SDS011;14254;50.968;5.366;2023-07-13T12:52:37;8.23;;;1.70;;
26622;SDS011;14254;50.968;5.366;2023-07-13T13:03:02;4.28;;;1.60;;
26622;SDS011;14254;50.968;5.366;2023-07-13T13:05:58;6.30;;;1.63;;
26622;SDS011;14254;50.968;5.366;2023-07-13T13:08:30;3.65;;;1.23;;
26622;SDS011;14254;50.968;5.366;2023-07-13T13:10:59;5.20;;;1.42;;
26622;SDS011;14254;50.968;5.366;2023-07-13T13:13:25;6.07;;;1.52;;
26622;SDS011;14254;50.968;5.366;2023-07-13T13:15:51;4.07;;;1.38;;
26622;SDS011;14254;50.968;5.366;2023-07-13T13:18:21;6.10;;;1.77;;
26622;SDS011;14254;50.968;5.366;2023-07-13T13:20:49;5.25;;;1.42;;
26622;SDS011;14254;50.968;5.366;2023-07-13T13:23:16;3.72;;;1.48;;
26622;SDS011;14254;50.968;5.366;2023-07-13T13:25:44;5.13;;;1.50;;
26622;SDS011;14254;50.968;5.366;2023-07-13T13:28:15;2.63;;;1.60;;
26622;SDS011;14254;50.968;5.366;2023-07-13T13:30:43;4.90;;;2.10;;
26622;SDS011;14254;50.968;5.366;2023-07-13T13:33:13;5.28;;;1.65;;
26622;SDS011;14254;50.968;5.366;2023-07-13T13:35:42;4.13;;;1.80;;
26622;SDS011;14254;50.968;5.366;2023-07-13T13:38:12;3.47;;;1.33;;
26622;SDS011;14254;50.968;5.366;2023-07-13T13:40:40;4.07;;;1.73;;
26622;SDS011;14254;50.968;5.366;2023-07-13T13:43:25;6.88;;;1.40;;
26622;SDS011;14254;50.968;5.366;2023-07-13T13:45:52;3.08;;;1.20;;
26622;SDS011;14254;50.968;5.366;2023-07-13T13:48:21;3.97;;;1.50;;
26622;SDS011;14254;50.968;5.366;2023-07-13T13:50:56;3.97;;;1.42;;
26622;SDS011;14254;50.968;5.366;2023-07-13T13:53:23;5.25;;;1.70;;
26622;SDS011;14254;50.968;5.366;2023-07-13T13:55:49;4.97;;;1.48;;
26622;SDS011;14254;50.968;5.366;2023-07-13T13:58:17;3.90;;;2.15;;
26622;SDS011;14254;50.968;5.366;2023-07-13T14:00:43;4.05;;;1.55;;
26622;SDS011;14254;50.968;5.366;2023-07-13T14:03:19;2.67;;;1.60;;
26622;SDS011;14254;50.968;5.366;2023-07-13T14:05:47;3.63;;;1.70;;
26622;SDS011;14254;50.968;5.366;2023-07-13T14:08:14;3.88;;;1.70;;
26622;SDS011;14254;50.968;5.366;2023-07-13T14:10:42;5.35;;;1.77;;
26622;SDS011;14254;50.968;5.366;2023-07-13T14:13:14;6.88;;;2.13;;
26622;SDS011;14254;50.968;5.366;2023-07-13T14:15:42;4.38;;;1.85;;
26622;SDS011;14254;50.968;5.366;2023-07-13T14:18:08;2.95;;;1.48;;
26622;SDS011;14254;50.968;5.366;2023-07-13T14:20:34;4.53;;;1.80;;
26622;SDS011;14254;50.968;5.366;2023-07-13T14:23:00;1.88;;;1.50;;
26622;SDS011;14254;50.968;5.366;2023-07-13T14:25:25;5.35;;;1.77;;
26622;SDS011;14254;50.968;5.366;2023-07-13T14:27:55;2.10;;;1.20;;
26622;SDS011;14254;50.968;5.366;2023-07-13T14:30:24;5.30;;;1.65;;
26622;SDS011;14254;50.968;5.366;2023-07-13T14:32:50;3.67;;;1.63;;
26622;SDS011;14254;50.968;5.366;2023-07-13T14:35:17;4.82;;;1.73;;
26622;SDS011;14254;50.968;5.366;2023-07-13T14:37:45;3.63;;;1.52;;
26622;SDS011;14254;50.968;5.366;2023-07-13T14:42:56;3.70;;;1.58;;
26622;SDS011;14254;50.968;5.366;2023-07-13T14:45:23;4.43;;;1.45;;
26622;SDS011;14254;50.968;5.366;2023-07-13T14:47:50;3.33;;;1.67;;
26622;SDS011;14254;50.968;5.366;2023-07-13T14:50:18;3.05;;;1.42;;
26622;SDS011;14254;50.968;5.366;2023-07-13T14:52:46;4.45;;;1.50;;
26622;SDS011;14254;50.968;5.366;2023-07-13T14:55:13;3.55;;;1.50;;
26622;SDS011;14254;50.968;5.366;2023-07-13T14:57:41;4.28;;;1.92;;
26622;SDS011;14254;50.968;5.366;2023-07-13T15:02:42;4.10;;;1.42;;
26622;SDS011;14254;50.968;5.366;2023-07-13T15:05:14;3.15;;;1.38;;
26622;SDS011;14254;50.968;5.366;2023-07-13T15:07:43;3.92;;;1.40;;
26622;SDS011;14254;50.968;5.366;2023-07-13T15:12:59;2.25;;;1.30;;
26622;SDS011;14254;50.968;5.366;2023-07-13T15:15:37;3.13;;;1.10;;
26622;SDS011;14254;50.968;5.366;2023-07-13T15:18:05;5.07;;;1.20;;
26622;SDS011;14254;50.968;5.366;2023-07-13T15:20:35;1.27;;;0.90;;
26622;SDS011;14254;50.968;5.366;2023-07-13T15:23:01;4.13;;;1.65;;
26622;SDS011;14254;50.968;5.366;2023-07-13T15:25:28;3.78;;;1.35;;
26622;SDS011;14254;50.968;5.366;2023-07-13T15:27:55;3.03;;;1.25;;
26622;SDS011;14254;50.968;5.366;2023-07-13T15:30:22;5.18;;;1.20;;
26622;SDS011;14254;50.968;5.366;2023-07-13T15:32:52;3.65;;;1.17;;
26622;SDS011;14254;50.968;5.366;2023-07-13T15:35:22;2.90;;;1.33;;
26622;SDS011;14254;50.968;5.366;2023-07-13T15:37:50;4.80;;;1.65;;
26622;SDS011;14254;50.968;5.366;2023-07-13T15:40:16;3.33;;;1.20;;
26622;SDS011;14254;50.968;5.366;2023-07-13T15:42:42;3.28;;;1.50;;
26622;SDS011;14254;50.968;5.366;2023-07-13T15:45:20;2.30;;;1.23;;
26622;SDS011;14254;50.968;5.366;2023-07-13T15:47:48;2.90;;;1.15;;
26622;SDS011;14254;50.968;5.366;2023-07-13T15:50:15;4.43;;;1.30;;
26622;SDS011;14254;50.968;5.366;2023-07-13T15:52:43;2.42;;;1.48;;
26622;SDS011;14254;50.968;5.366;2023-07-13T15:55:12;4.30;;;1.50;;
26622;SDS011;14254;50.968;5.366;2023-07-13T15:57:43;1.58;;;1.15;;
26622;SDS011;14254;50.968;5.366;2023-07-13T16:00:14;3.83;;;1.20;;
26622;SDS011;14254;50.968;5.366;2023-07-13T16:02:49;2.92;;;1.45;;
26622;SDS011;14254;50.968;5.366;2023-07-13T16:05:15;2.75;;;1.20;;